createdAt,value
2022-12-03T00:00:42.878Z,21.97
2022-12-03T00:03:09.991Z,22.37
2022-12-03T00:05:37.049Z,21.73
2022-12-03T00:08:04.390Z,22.80
2022-12-03T00:10:31.466Z,22.33
2022-12-03T00:12:58.465Z,20.60
2022-12-03T00:15:25.430Z,20.73
2022-12-03T00:17:52.397Z,29.52
2022-12-03T00:20:20.764Z,24.50
2022-12-03T00:22:47.769Z,24.30
2022-12-03T00:25:14.975Z,23.00
2022-12-03T00:27:42.004Z,23.53
2022-12-03T00:30:09.358Z,23.73
2022-12-03T00:32:36.453Z,23.10
2022-12-03T00:35:03.497Z,24.13
2022-12-03T00:37:30.527Z,26.03
2022-12-03T00:39:57.527Z,23.47
2022-12-03T00:42:24.495Z,24.23
2022-12-03T00:44:51.862Z,23.40
2022-12-03T00:47:19.215Z,23.53
2022-12-03T00:49:46.178Z,23.23
2022-12-03T00:52:13.163Z,23.80
2022-12-03T00:54:40.138Z,23.30
2022-12-03T00:57:07.130Z,22.80
2022-12-03T00:59:34.168Z,22.17
2022-12-03T01:02:01.200Z,20.67
2022-12-03T01:04:28.239Z,22.93
2022-12-03T01:06:55.315Z,22.63
2022-12-03T01:09:22.333Z,21.30
2022-12-03T01:11:49.298Z,22.67
2022-12-03T01:14:17.767Z,23.47
2022-12-03T01:16:44.839Z,22.23
2022-12-03T01:19:15.721Z,21.47
2022-12-03T01:21:43.549Z,21.90
2022-12-03T01:24:10.543Z,22.10
2022-12-03T01:26:37.557Z,21.73
2022-12-03T01:29:04.791Z,25.97
2022-12-03T01:31:50.380Z,29.43
2022-12-03T01:34:17.400Z,25.50
2022-12-03T01:36:44.422Z,21.20
2022-12-03T01:39:11.437Z,20.47
2022-12-03T01:41:38.783Z,19.97
2022-12-03T01:44:13.328Z,20.50
2022-12-03T01:46:41.290Z,21.73
2022-12-03T01:49:10.601Z,19.67
2022-12-03T01:51:37.561Z,20.27
2022-12-03T01:54:04.691Z,21.47
2022-12-03T01:56:31.660Z,21.80
2022-12-03T01:58:58.699Z,20.77
2022-12-03T02:01:25.696Z,19.60
2022-12-03T02:03:52.756Z,19.97
2022-12-03T02:06:21.246Z,21.47
2022-12-03T02:08:48.646Z,27.45
2022-12-03T02:11:20.682Z,22.67
2022-12-03T02:13:48.773Z,20.03
2022-12-03T02:16:15.822Z,18.97
2022-12-03T02:18:43.321Z,21.40
2022-12-03T02:21:30.566Z,26.67
2022-12-03T02:24:16.571Z,21.10
2022-12-03T02:26:43.556Z,19.43
2022-12-03T02:29:10.556Z,18.80
2022-12-03T02:31:37.600Z,18.77
2022-12-03T02:34:08.393Z,16.80
2022-12-03T02:36:35.867Z,16.63
2022-12-03T02:39:03.234Z,17.60
2022-12-03T02:41:49.172Z,17.07
2022-12-03T02:44:16.150Z,16.73
2022-12-03T02:46:43.218Z,16.50
2022-12-03T02:49:10.363Z,16.23
2022-12-03T02:51:37.361Z,17.50
2022-12-03T02:54:04.593Z,17.20
2022-12-03T02:56:31.852Z,17.20
2022-12-03T02:59:01.152Z,16.77
2022-12-03T03:01:28.430Z,16.30
2022-12-03T03:03:55.701Z,17.23
2022-12-03T03:06:22.723Z,16.23
2022-12-03T03:08:49.768Z,16.30
2022-12-03T03:11:16.822Z,17.50
2022-12-03T03:13:44.428Z,19.00
2022-12-03T03:16:11.442Z,16.53
2022-12-03T03:18:38.708Z,17.30
2022-12-03T03:21:05.824Z,17.97
2022-12-03T03:23:33.034Z,22.17
2022-12-03T03:25:59.991Z,18.03
2022-12-03T03:28:27.587Z,17.63
2022-12-03T03:30:54.765Z,17.03
2022-12-03T03:33:21.989Z,18.37
2022-12-03T03:35:49.357Z,17.47
2022-12-03T03:38:18.161Z,18.77
2022-12-03T03:40:45.415Z,17.67
2022-12-03T03:43:12.934Z,17.27
2022-12-03T03:45:40.034Z,17.90
2022-12-03T03:48:07.554Z,16.87
2022-12-03T03:50:34.610Z,18.37
2022-12-03T03:53:02.786Z,18.07
2022-12-03T03:55:29.910Z,18.57
2022-12-03T03:57:56.965Z,18.20
2022-12-03T04:00:24.128Z,18.23
2022-12-03T04:02:52.554Z,23.13
2022-12-03T04:05:20.616Z,18.93
2022-12-03T04:07:47.985Z,18.40
2022-12-03T04:10:34.316Z,18.57
2022-12-03T04:13:01.915Z,18.63
2022-12-03T04:15:28.970Z,17.13
2022-12-03T04:18:15.124Z,18.87
2022-12-03T04:20:42.273Z,19.60
2022-12-03T04:23:09.355Z,18.97
2022-12-03T04:25:55.098Z,19.77
2022-12-03T04:28:41.055Z,16.90
2022-12-03T04:31:27.004Z,18.90
2022-12-03T04:34:12.997Z,18.77
2022-12-03T04:36:39.972Z,20.38
2022-12-03T04:39:07.023Z,19.50
2022-12-03T04:41:33.997Z,18.47
2022-12-03T04:44:19.713Z,18.10
2022-12-03T04:46:46.688Z,18.90
2022-12-03T04:49:13.737Z,20.30
2022-12-03T04:51:40.708Z,19.90
2022-12-03T04:54:07.672Z,20.00
2022-12-03T04:56:34.709Z,21.07
2022-12-03T04:59:01.706Z,20.03
2022-12-03T05:01:28.824Z,19.47
2022-12-03T05:03:55.902Z,21.13
2022-12-03T05:06:22.938Z,19.93
2022-12-03T05:08:49.954Z,20.50
2022-12-03T05:11:16.920Z,19.67
2022-12-03T05:13:43.946Z,20.47
2022-12-03T05:16:10.996Z,20.80
2022-12-03T05:18:38.033Z,21.50
2022-12-03T05:21:05.214Z,21.00
2022-12-03T05:23:32.234Z,20.17
2022-12-03T05:25:59.337Z,20.37
2022-12-03T05:28:26.670Z,19.90
2022-12-03T05:30:53.677Z,20.83
2022-12-03T05:33:20.956Z,20.23
2022-12-03T05:35:48.248Z,21.13
2022-12-03T05:38:15.388Z,19.90
2022-12-03T05:40:42.497Z,20.97
2022-12-03T05:43:09.484Z,20.57
2022-12-03T05:45:37.583Z,20.27
2022-12-03T05:48:05.378Z,22.20
2022-12-03T05:50:33.456Z,23.00
2022-12-03T05:53:00.967Z,28.58
2022-12-03T05:55:28.260Z,23.63
2022-12-03T05:57:55.353Z,22.43
2022-12-03T06:00:23.575Z,23.27
2022-12-03T06:02:50.736Z,22.03
2022-12-03T06:05:19.420Z,21.57
2022-12-03T06:07:46.845Z,21.73
2022-12-03T06:10:16.094Z,22.67
2022-12-03T06:12:43.083Z,21.53
2022-12-03T06:15:10.563Z,21.67
2022-12-03T06:17:37.560Z,24.07
2022-12-03T06:20:05.006Z,22.13
2022-12-03T06:22:31.980Z,24.43
2022-12-03T06:25:03.556Z,23.27
2022-12-03T06:27:33.508Z,22.87
2022-12-03T06:30:00.478Z,21.40
2022-12-03T06:32:27.437Z,29.33
2022-12-03T06:34:54.720Z,25.47
2022-12-03T06:37:22.026Z,24.00
2022-12-03T06:39:49.022Z,23.30
2022-12-03T06:42:16.014Z,23.00
2022-12-03T06:44:42.992Z,22.73
2022-12-03T06:47:09.957Z,22.57
2022-12-03T06:49:36.942Z,23.13
2022-12-03T06:52:03.923Z,23.33
2022-12-03T06:54:31.193Z,24.83
2022-12-03T06:56:58.231Z,24.00
2022-12-03T06:59:25.200Z,25.87
2022-12-03T07:01:52.210Z,25.07
2022-12-03T07:04:19.276Z,26.20
2022-12-03T07:06:46.230Z,25.67
2022-12-03T07:09:13.237Z,25.47
2022-12-03T07:11:40.287Z,26.67
2022-12-03T07:14:07.838Z,24.77
2022-12-03T07:16:35.861Z,25.53
2022-12-03T07:19:03.290Z,26.30
2022-12-03T07:21:30.296Z,24.80
2022-12-03T07:23:57.290Z,25.53
2022-12-03T07:26:24.258Z,24.23
2022-12-03T07:28:51.326Z,24.57
2022-12-03T07:31:18.361Z,24.50
2022-12-03T07:33:45.609Z,24.93
2022-12-03T07:36:12.649Z,24.57
2022-12-03T07:38:39.614Z,24.37
2022-12-03T07:41:06.664Z,24.03
2022-12-03T07:43:33.717Z,24.23
2022-12-03T07:46:00.680Z,25.90
2022-12-03T07:48:27.885Z,32.63
2022-12-03T07:50:54.991Z,26.53
2022-12-03T07:53:22.156Z,26.43
2022-12-03T07:55:49.147Z,24.27
2022-12-03T07:58:16.157Z,23.63
2022-12-03T08:00:43.233Z,26.17
2022-12-03T08:03:10.233Z,23.70
2022-12-03T08:05:37.205Z,25.20
2022-12-03T08:08:05.037Z,25.00
2022-12-03T08:10:32.420Z,22.40
2022-12-03T08:13:00.081Z,24.00
2022-12-03T08:15:31.041Z,25.70
2022-12-03T08:18:01.429Z,24.23
2022-12-03T08:20:29.987Z,25.50
2022-12-03T08:22:57.861Z,32.78
2022-12-03T08:25:31.943Z,25.60
2022-12-03T08:28:18.950Z,25.03
2022-12-03T08:30:47.697Z,24.77
2022-12-03T08:33:21.015Z,25.77
2022-12-03T08:35:50.834Z,26.13
2022-12-03T08:38:19.315Z,24.67
2022-12-03T08:40:47.182Z,24.60
2022-12-03T08:43:23.378Z,25.50
2022-12-03T08:45:51.210Z,26.77
2022-12-03T08:48:39.940Z,26.13
2022-12-03T08:51:10.045Z,26.00
2022-12-03T08:53:46.342Z,25.53
2022-12-03T08:56:25.547Z,25.00
2022-12-03T08:58:59.425Z,24.87
2022-12-03T09:01:46.123Z,25.93
2022-12-03T09:04:36.641Z,34.70
2022-12-03T09:07:03.696Z,27.10
2022-12-03T09:09:30.684Z,25.70
2022-12-03T09:11:57.814Z,25.13
2022-12-03T09:14:24.828Z,23.97
2022-12-03T09:16:55.990Z,24.07
2022-12-03T09:19:27.502Z,23.90
2022-12-03T09:21:54.987Z,22.43
2022-12-03T09:24:22.263Z,23.40
2022-12-03T09:26:49.360Z,23.87
2022-12-03T09:29:16.578Z,23.43
2022-12-03T09:31:43.699Z,20.90
2022-12-03T09:34:10.916Z,20.00
2022-12-03T09:36:37.938Z,20.07
2022-12-03T09:39:05.002Z,18.77
2022-12-03T09:41:32.035Z,18.97
2022-12-03T09:44:08.616Z,18.13
2022-12-03T09:46:38.315Z,19.50
2022-12-03T09:49:10.762Z,18.80
2022-12-03T09:51:41.059Z,20.27
2022-12-03T09:54:08.166Z,19.23
2022-12-03T09:56:37.097Z,19.97
2022-12-03T09:59:07.369Z,18.17
2022-12-03T10:01:34.605Z,19.57
2022-12-03T10:04:02.311Z,17.03
2022-12-03T10:06:29.510Z,17.87
2022-12-03T10:08:56.672Z,18.60
2022-12-03T10:11:25.497Z,18.17
2022-12-03T10:13:53.721Z,17.43
2022-12-03T10:16:21.481Z,18.60
2022-12-03T10:18:59.872Z,20.20
2022-12-03T10:21:29.771Z,18.23
2022-12-03T10:24:16.724Z,16.53
2022-12-03T10:26:44.675Z,17.73
2022-12-03T10:29:15.566Z,15.93
2022-12-03T10:31:42.556Z,17.43
2022-12-03T10:34:09.938Z,19.23
2022-12-03T10:36:37.011Z,17.67
2022-12-03T10:39:22.238Z,17.80
2022-12-03T10:41:49.234Z,18.73
2022-12-03T10:44:20.420Z,16.53
2022-12-03T10:47:05.494Z,16.63
2022-12-03T10:49:32.578Z,18.23
2022-12-03T10:51:59.636Z,18.70
2022-12-03T10:54:27.990Z,21.80
2022-12-03T10:56:54.948Z,19.13
2022-12-03T10:59:26.265Z,18.33
2022-12-03T11:01:53.339Z,17.47
2022-12-03T11:04:20.620Z,18.13
2022-12-03T11:06:47.828Z,18.53
2022-12-03T11:09:17.936Z,18.77
2022-12-03T11:11:44.972Z,17.97
2022-12-03T11:14:12.331Z,19.20
2022-12-03T11:16:42.350Z,17.43
2022-12-03T11:19:19.335Z,17.27
2022-12-03T11:22:09.580Z,18.40
2022-12-03T11:24:37.402Z,18.13
2022-12-03T11:27:04.384Z,17.77
2022-12-03T11:29:51.613Z,18.53
2022-12-03T11:32:37.574Z,20.10
2022-12-03T11:35:05.444Z,24.60
2022-12-03T11:37:32.406Z,20.77
2022-12-03T11:40:00.364Z,19.03
2022-12-03T11:42:27.298Z,19.63
2022-12-03T11:45:03.572Z,19.03
2022-12-03T11:47:50.797Z,19.20
2022-12-03T11:50:21.153Z,18.33
2022-12-03T11:52:52.871Z,18.93
2022-12-03T11:55:19.874Z,18.57
2022-12-03T11:57:46.896Z,19.10
2022-12-03T12:00:14.281Z,18.47
2022-12-03T12:02:41.391Z,17.50
2022-12-03T12:05:15.540Z,17.67
2022-12-03T12:07:42.590Z,18.60
2022-12-03T12:10:09.767Z,19.55
2022-12-03T12:12:51.063Z,16.17
2022-12-03T12:15:35.102Z,16.80
2022-12-03T12:18:21.177Z,15.60
2022-12-03T12:20:48.142Z,15.13
2022-12-03T12:23:23.140Z,15.17
2022-12-03T12:25:54.195Z,15.73
2022-12-03T12:28:21.530Z,14.67
2022-12-03T12:30:48.533Z,13.77
2022-12-03T12:33:22.945Z,14.73
2022-12-03T12:35:49.994Z,14.30
2022-12-03T12:38:21.543Z,14.37
2022-12-03T12:40:49.504Z,13.67
2022-12-03T12:43:24.425Z,15.63
2022-12-03T12:45:53.323Z,13.37
2022-12-03T12:48:23.528Z,13.57
2022-12-03T12:51:13.580Z,16.75
2022-12-03T12:53:42.925Z,13.93
2022-12-03T12:56:23.136Z,13.37
2022-12-03T12:58:50.483Z,13.00
2022-12-03T13:01:22.264Z,15.10
2022-12-03T13:03:51.412Z,14.27
2022-12-03T13:06:18.867Z,14.03
2022-12-03T13:08:47.172Z,13.90
2022-12-03T13:11:25.033Z,14.10
2022-12-03T13:13:52.603Z,13.50
2022-12-03T13:16:31.310Z,14.00
2022-12-03T13:18:59.627Z,14.30
2022-12-03T13:21:44.647Z,14.67
2022-12-03T13:24:20.828Z,13.87
2022-12-03T13:26:47.806Z,14.67
2022-12-03T13:29:16.076Z,14.07
2022-12-03T13:31:49.363Z,18.73
2022-12-03T13:34:23.833Z,15.57
2022-12-03T13:36:57.502Z,15.33
2022-12-03T13:39:31.169Z,13.97
2022-12-03T13:42:18.774Z,14.40
2022-12-03T13:44:47.676Z,15.30
2022-12-03T13:47:16.485Z,15.70
2022-12-03T13:49:47.071Z,16.07
2022-12-03T13:52:16.222Z,15.37
2022-12-03T13:54:43.309Z,16.27
2022-12-03T13:57:10.278Z,14.53
2022-12-03T13:59:37.338Z,15.37
2022-12-03T14:02:04.396Z,15.27
2022-12-03T14:04:31.386Z,15.30
2022-12-03T14:06:58.370Z,14.30
2022-12-03T14:09:25.367Z,15.23
2022-12-03T14:12:11.239Z,15.77
2022-12-03T14:14:38.335Z,15.27
2022-12-03T14:17:06.377Z,14.77
2022-12-03T14:19:33.536Z,15.27
2022-12-03T14:22:00.558Z,14.20
2022-12-03T14:24:27.623Z,15.00
2022-12-03T14:26:54.600Z,15.80
2022-12-03T14:29:21.579Z,15.60
2022-12-03T14:31:48.637Z,15.47
2022-12-03T14:34:15.672Z,15.20
2022-12-03T14:36:43.017Z,15.53
2022-12-03T14:39:10.024Z,15.03
2022-12-03T14:41:55.812Z,14.77
2022-12-03T14:44:23.509Z,14.30
2022-12-03T14:46:56.631Z,15.27
2022-12-03T14:49:24.197Z,15.52
2022-12-03T14:51:51.258Z,16.27
2022-12-03T14:54:18.237Z,14.57
2022-12-03T14:56:45.213Z,14.57
2022-12-03T14:59:12.483Z,15.30
2022-12-03T15:01:39.637Z,14.77
2022-12-03T15:04:06.875Z,15.70
2022-12-03T15:06:33.937Z,15.90
2022-12-03T15:09:01.300Z,15.33
2022-12-03T15:11:28.820Z,15.07
2022-12-03T15:13:55.884Z,16.70
2022-12-03T15:16:23.621Z,16.10
2022-12-03T15:18:50.892Z,17.00
2022-12-03T15:21:17.866Z,16.80
2022-12-03T15:23:44.871Z,14.97
2022-12-03T15:26:11.856Z,20.07
2022-12-03T15:28:38.842Z,15.47
2022-12-03T15:31:05.979Z,14.90
2022-12-03T15:33:33.007Z,14.40
2022-12-03T15:36:00.025Z,14.17
2022-12-03T15:38:27.011Z,13.67
2022-12-03T15:40:53.989Z,13.40
2022-12-03T15:43:20.997Z,14.67
2022-12-03T15:45:48.096Z,14.40
2022-12-03T15:48:15.203Z,14.47
2022-12-03T15:50:42.187Z,14.43
2022-12-03T15:53:09.214Z,14.00
2022-12-03T15:55:36.199Z,13.53
2022-12-03T15:58:03.217Z,14.20
2022-12-03T16:00:30.196Z,14.03
2022-12-03T16:02:57.267Z,13.80
2022-12-03T16:05:24.373Z,15.52
2022-12-03T16:07:51.379Z,14.03
2022-12-03T16:10:21.329Z,14.23
2022-12-03T16:12:48.762Z,13.93
2022-12-03T16:15:15.874Z,13.93
2022-12-03T16:17:42.845Z,14.00
2022-12-03T16:20:09.950Z,13.43
2022-12-03T16:22:36.932Z,14.07
2022-12-03T16:25:05.073Z,13.60
2022-12-03T16:27:32.072Z,13.33
2022-12-03T16:29:59.043Z,13.17
2022-12-03T16:32:26.014Z,13.37
2022-12-03T16:34:53.060Z,12.37
2022-12-03T16:37:20.062Z,12.57
2022-12-03T16:39:47.040Z,13.55
2022-12-03T16:42:17.278Z,14.03
2022-12-03T16:45:14.037Z,12.20
2022-12-03T16:47:41.022Z,13.80
2022-12-03T16:50:10.630Z,13.73
2022-12-03T16:52:39.778Z,13.47
2022-12-03T16:55:07.054Z,14.10
2022-12-03T16:57:34.195Z,12.37
2022-12-03T17:00:01.440Z,17.07
2022-12-03T17:02:28.523Z,15.20
2022-12-03T17:04:55.700Z,14.87
2022-12-03T17:07:22.676Z,14.50
2022-12-03T17:09:49.851Z,14.43
2022-12-03T17:12:17.222Z,12.70
2022-12-03T17:14:44.314Z,13.77
2022-12-03T17:17:11.291Z,13.83
2022-12-03T17:19:38.456Z,14.30
2022-12-03T17:22:05.448Z,15.23
2022-12-03T17:24:32.428Z,13.90
2022-12-03T17:26:59.404Z,17.43
2022-12-03T17:29:26.429Z,14.30
2022-12-03T17:31:53.476Z,14.83
2022-12-03T17:34:20.536Z,14.40
2022-12-03T17:36:47.516Z,17.43
2022-12-03T17:39:14.510Z,13.93
2022-12-03T17:41:41.550Z,23.23
2022-12-03T17:44:10.824Z,33.07
2022-12-03T17:46:39.236Z,13.70
2022-12-03T17:49:06.314Z,14.87
2022-12-03T17:51:33.438Z,17.37
2022-12-03T17:54:00.508Z,15.07
2022-12-03T17:56:27.513Z,19.30
2022-12-03T17:58:54.475Z,15.53
2022-12-03T18:01:21.505Z,16.00
2022-12-03T18:03:48.614Z,17.93
2022-12-03T18:06:15.660Z,23.30
2022-12-03T18:08:42.684Z,15.80
2022-12-03T18:11:09.658Z,16.47
2022-12-03T18:13:36.905Z,18.93
2022-12-03T18:16:04.024Z,19.90
2022-12-03T18:18:31.030Z,14.87
2022-12-03T18:21:02.226Z,14.77
2022-12-03T18:23:29.449Z,17.63
2022-12-03T18:25:56.544Z,16.47
2022-12-03T18:28:23.708Z,20.70
2022-12-03T18:30:52.928Z,28.40
2022-12-03T18:33:21.370Z,17.93
2022-12-03T18:35:48.454Z,20.67
2022-12-03T18:38:16.735Z,17.17
2022-12-03T18:40:44.720Z,15.87
2022-12-03T18:43:15.571Z,31.97
2022-12-03T18:45:42.952Z,23.13
2022-12-03T18:48:12.678Z,22.60
2022-12-03T18:50:40.990Z,18.30
2022-12-03T18:53:12.188Z,18.30
2022-12-03T18:55:39.346Z,20.53
2022-12-03T18:58:06.471Z,15.73
2022-12-03T19:00:33.931Z,18.53
2022-12-03T19:03:03.729Z,17.47
2022-12-03T19:05:32.272Z,19.70
2022-12-03T19:07:59.305Z,17.53
2022-12-03T19:10:26.732Z,22.87
2022-12-03T19:12:53.719Z,18.63
2022-12-03T19:15:20.736Z,16.93
2022-12-03T19:17:51.219Z,18.33
2022-12-03T19:20:18.282Z,18.37
2022-12-03T19:22:45.247Z,19.30
2022-12-03T19:25:12.306Z,17.30
2022-12-03T19:27:39.381Z,17.87
2022-12-03T19:30:06.742Z,15.97
2022-12-03T19:32:34.820Z,16.87
2022-12-03T19:35:04.880Z,16.90
2022-12-03T19:37:33.466Z,16.67
2022-12-03T19:40:00.986Z,17.83
2022-12-03T19:42:27.996Z,17.90
2022-12-03T19:44:55.091Z,16.83
2022-12-03T19:47:24.490Z,18.57
2022-12-03T19:49:53.708Z,17.27
2022-12-03T19:52:20.981Z,29.67
2022-12-03T19:54:48.004Z,48.47
2022-12-03T19:57:21.514Z,20.40
2022-12-03T19:59:50.220Z,18.17
2022-12-03T20:02:17.317Z,26.57
2022-12-03T20:04:44.417Z,24.73
2022-12-03T20:07:11.444Z,24.13
2022-12-03T20:09:38.471Z,28.13
2022-12-03T20:12:05.545Z,19.07
2022-12-03T20:14:32.535Z,18.47
2022-12-03T20:16:59.570Z,18.27
2022-12-03T20:19:26.629Z,20.13
2022-12-03T20:21:56.450Z,20.77
2022-12-03T20:24:27.850Z,20.83
2022-12-03T20:26:54.806Z,24.58
2022-12-03T20:29:21.816Z,24.23
2022-12-03T20:31:48.914Z,26.50
2022-12-03T20:34:15.963Z,19.97
2022-12-03T20:36:44.102Z,20.50
2022-12-03T20:39:11.098Z,22.87
2022-12-03T20:41:38.126Z,20.20
2022-12-03T20:44:07.277Z,21.13
2022-12-03T20:46:34.375Z,21.10
2022-12-03T20:49:01.522Z,23.83
2022-12-03T20:51:30.269Z,21.40
2022-12-03T20:53:57.672Z,25.13
2022-12-03T20:56:26.326Z,22.53
2022-12-03T20:58:53.918Z,25.03
2022-12-03T21:01:22.802Z,21.93
2022-12-03T21:03:50.326Z,22.63
2022-12-03T21:06:18.080Z,21.03
2022-12-03T21:08:45.365Z,20.33
2022-12-03T21:11:14.100Z,22.03
2022-12-03T21:13:42.461Z,20.63
2022-12-03T21:16:11.033Z,22.13
2022-12-03T21:18:38.182Z,21.87
2022-12-03T21:21:05.288Z,21.83
2022-12-03T21:23:33.157Z,27.33
2022-12-03T21:26:07.672Z,21.90
2022-12-03T21:28:35.109Z,31.30
2022-12-03T21:31:03.628Z,41.73
2022-12-03T21:33:31.498Z,22.37
2022-12-03T21:35:58.940Z,22.07
2022-12-03T21:38:26.453Z,21.10
2022-12-03T21:40:53.539Z,21.80
2022-12-03T21:43:20.525Z,27.42
2022-12-03T21:45:47.601Z,22.67
2022-12-03T21:48:15.061Z,30.00
2022-12-03T21:50:42.336Z,43.07
2022-12-03T21:53:09.477Z,25.13
2022-12-03T21:55:39.338Z,27.73
2022-12-03T21:58:06.379Z,21.83
2022-12-03T22:00:33.400Z,28.47
2022-12-03T22:03:00.415Z,21.70
2022-12-03T22:05:27.494Z,35.47
2022-12-03T22:07:54.491Z,27.87
2022-12-03T22:10:21.525Z,22.33
2022-12-03T22:12:48.504Z,32.00
2022-12-03T22:15:19.021Z,42.17
2022-12-03T22:17:46.637Z,28.53
2022-12-03T22:20:13.692Z,23.50
2022-12-03T22:22:40.669Z,67.60
2022-12-03T22:25:07.894Z,25.40
2022-12-03T22:27:35.047Z,21.93
2022-12-03T22:30:02.172Z,21.90
2022-12-03T22:32:29.189Z,20.87
2022-12-03T22:34:56.180Z,22.53
2022-12-03T22:37:23.838Z,34.20
2022-12-03T22:39:50.865Z,22.37
2022-12-03T22:42:17.869Z,32.33
2022-12-03T22:44:44.841Z,34.83
2022-12-03T22:47:11.802Z,23.07
2022-12-03T22:49:38.821Z,23.43
2022-12-03T22:52:05.959Z,20.90
2022-12-03T22:54:32.985Z,20.40
2022-12-03T22:57:02.870Z,23.38
2022-12-03T22:59:29.941Z,23.43
2022-12-03T23:01:57.970Z,22.83
2022-12-03T23:04:24.937Z,24.50
2022-12-03T23:06:51.900Z,22.67
2022-12-03T23:09:18.938Z,20.43
2022-12-03T23:11:45.953Z,20.20
2022-12-03T23:14:13.372Z,19.57
2022-12-03T23:16:41.015Z,19.60
2022-12-03T23:19:08.506Z,25.23
2022-12-03T23:21:36.146Z,20.83
2022-12-03T23:24:04.208Z,20.87
2022-12-03T23:26:33.663Z,20.20
2022-12-03T23:29:00.646Z,19.87
2022-12-03T23:31:29.357Z,19.13
2022-12-03T23:33:57.308Z,18.63
2022-12-03T23:36:25.476Z,23.33
2022-12-03T23:38:52.543Z,43.63
2022-12-03T23:41:20.703Z,23.17
2022-12-03T23:43:48.144Z,21.70
2022-12-03T23:46:20.709Z,21.70
2022-12-03T23:48:47.822Z,21.07
2022-12-03T23:51:16.831Z,19.63
2022-12-03T23:53:44.676Z,19.60
2022-12-03T23:56:13.119Z,19.77
2022-12-03T23:58:40.176Z,20.40
